sensor_id;sensor_type;location;lat;lon;timestamp;P1;durP1;ratioP1;P2;durP2;ratioP2
13309;SDS011;6723;48.256;16.402;2022-07-23T00:00:19;8.83;;;8.03;;
13309;SDS011;6723;48.256;16.402;2022-07-23T00:02:45;14.00;;;8.77;;
13309;SDS011;6723;48.256;16.402;2022-07-23T00:05:11;12.90;;;8.23;;
13309;SDS011;6723;48.256;16.402;2022-07-23T00:07:37;9.07;;;8.27;;
13309;SDS011;6723;48.256;16.402;2022-07-23T00:10:03;9.37;;;8.37;;
13309;SDS011;6723;48.256;16.402;2022-07-23T00:12:30;9.27;;;8.20;;
13309;SDS011;6723;48.256;16.402;2022-07-23T00:14:56;9.63;;;8.07;;
13309;SDS011;6723;48.256;16.402;2022-07-23T00:17:21;8.90;;;8.10;;
13309;SDS011;6723;48.256;16.402;2022-07-23T00:19:47;11.63;;;8.53;;
13309;SDS011;6723;48.256;16.402;2022-07-23T00:22:13;11.17;;;8.50;;
13309;SDS011;6723;48.256;16.402;2022-07-23T00:24:39;11.13;;;8.60;;
13309;SDS011;6723;48.256;16.402;2022-07-23T00:27:04;9.20;;;8.27;;
13309;SDS011;6723;48.256;16.402;2022-07-23T00:29:30;9.20;;;7.90;;
13309;SDS011;6723;48.256;16.402;2022-07-23T00:31:56;11.30;;;8.00;;
13309;SDS011;6723;48.256;16.402;2022-07-23T00:34:23;9.23;;;8.40;;
13309;SDS011;6723;48.256;16.402;2022-07-23T00:36:49;9.13;;;8.23;;
13309;SDS011;6723;48.256;16.402;2022-07-23T00:39:14;10.93;;;8.90;;
13309;SDS011;6723;48.256;16.402;2022-07-23T00:41:40;11.63;;;8.80;;
13309;SDS011;6723;48.256;16.402;2022-07-23T00:44:16;8.83;;;8.03;;
13309;SDS011;6723;48.256;16.402;2022-07-23T00:46:48;9.87;;;8.63;;
13309;SDS011;6723;48.256;16.402;2022-07-23T00:49:22;9.33;;;8.33;;
13309;SDS011;6723;48.256;16.402;2022-07-23T00:51:49;10.13;;;9.13;;
13309;SDS011;6723;48.256;16.402;2022-07-23T00:54:16;10.63;;;8.47;;
13309;SDS011;6723;48.256;16.402;2022-07-23T00:56:43;10.40;;;8.80;;
13309;SDS011;6723;48.256;16.402;2022-07-23T00:59:10;9.30;;;8.50;;
13309;SDS011;6723;48.256;16.402;2022-07-23T01:01:36;9.20;;;8.30;;
13309;SDS011;6723;48.256;16.402;2022-07-23T01:04:02;9.33;;;8.33;;
13309;SDS011;6723;48.256;16.402;2022-07-23T01:06:28;9.70;;;8.70;;
13309;SDS011;6723;48.256;16.402;2022-07-23T01:08:55;15.10;;;9.20;;
13309;SDS011;6723;48.256;16.402;2022-07-23T01:11:22;9.33;;;8.40;;
13309;SDS011;6723;48.256;16.402;2022-07-23T01:13:49;9.80;;;8.87;;
13309;SDS011;6723;48.256;16.402;2022-07-23T01:16:14;10.13;;;9.13;;
13309;SDS011;6723;48.256;16.402;2022-07-23T01:18:40;9.43;;;8.33;;
13309;SDS011;6723;48.256;16.402;2022-07-23T01:21:06;9.17;;;8.33;;
13309;SDS011;6723;48.256;16.402;2022-07-23T01:23:34;10.90;;;9.13;;
13309;SDS011;6723;48.256;16.402;2022-07-23T01:25:59;13.87;;;9.40;;
13309;SDS011;6723;48.256;16.402;2022-07-23T01:28:25;11.77;;;9.57;;
13309;SDS011;6723;48.256;16.402;2022-07-23T01:30:51;11.00;;;9.10;;
13309;SDS011;6723;48.256;16.402;2022-07-23T01:33:17;9.63;;;8.63;;
13309;SDS011;6723;48.256;16.402;2022-07-23T01:35:43;9.67;;;8.67;;
13309;SDS011;6723;48.256;16.402;2022-07-23T01:38:09;10.53;;;8.57;;
13309;SDS011;6723;48.256;16.402;2022-07-23T01:40:34;9.80;;;8.73;;
13309;SDS011;6723;48.256;16.402;2022-07-23T01:43:00;9.13;;;8.30;;
13309;SDS011;6723;48.256;16.402;2022-07-23T01:45:26;10.90;;;8.90;;
13309;SDS011;6723;48.256;16.402;2022-07-23T01:47:51;12.07;;;8.87;;
13309;SDS011;6723;48.256;16.402;2022-07-23T01:50:17;10.57;;;8.00;;
13309;SDS011;6723;48.256;16.402;2022-07-23T01:52:43;8.83;;;7.93;;
13309;SDS011;6723;48.256;16.402;2022-07-23T01:55:09;11.03;;;8.53;;
13309;SDS011;6723;48.256;16.402;2022-07-23T01:57:34;11.17;;;8.70;;
13309;SDS011;6723;48.256;16.402;2022-07-23T02:00:00;9.97;;;8.70;;
13309;SDS011;6723;48.256;16.402;2022-07-23T02:02:26;10.80;;;8.47;;
13309;SDS011;6723;48.256;16.402;2022-07-23T02:04:52;10.53;;;8.67;;
13309;SDS011;6723;48.256;16.402;2022-07-23T02:07:17;9.40;;;8.47;;
13309;SDS011;6723;48.256;16.402;2022-07-23T02:09:43;8.70;;;7.90;;
13309;SDS011;6723;48.256;16.402;2022-07-23T02:12:09;9.37;;;8.33;;
13309;SDS011;6723;48.256;16.402;2022-07-23T02:14:35;10.13;;;8.63;;
13309;SDS011;6723;48.256;16.402;2022-07-23T02:17:01;11.00;;;9.00;;
13309;SDS011;6723;48.256;16.402;2022-07-23T02:19:27;13.10;;;8.93;;
13309;SDS011;6723;48.256;16.402;2022-07-23T02:21:53;10.73;;;9.50;;
13309;SDS011;6723;48.256;16.402;2022-07-23T02:24:19;10.97;;;9.17;;
13309;SDS011;6723;48.256;16.402;2022-07-23T02:26:46;10.20;;;9.30;;
13309;SDS011;6723;48.256;16.402;2022-07-23T02:29:11;9.93;;;8.57;;
13309;SDS011;6723;48.256;16.402;2022-07-23T02:31:37;12.60;;;9.57;;
13309;SDS011;6723;48.256;16.402;2022-07-23T02:34:03;10.47;;;9.47;;
13309;SDS011;6723;48.256;16.402;2022-07-23T02:36:29;11.57;;;10.00;;
13309;SDS011;6723;48.256;16.402;2022-07-23T02:38:55;11.17;;;10.17;;
13309;SDS011;6723;48.256;16.402;2022-07-23T02:41:21;10.80;;;9.70;;
13309;SDS011;6723;48.256;16.402;2022-07-23T02:43:46;11.23;;;9.53;;
13309;SDS011;6723;48.256;16.402;2022-07-23T02:46:12;11.03;;;9.50;;
13309;SDS011;6723;48.256;16.402;2022-07-23T02:48:38;13.27;;;10.30;;
13309;SDS011;6723;48.256;16.402;2022-07-23T02:51:04;10.53;;;9.53;;
13309;SDS011;6723;48.256;16.402;2022-07-23T02:53:30;10.93;;;9.87;;
13309;SDS011;6723;48.256;16.402;2022-07-23T02:55:55;10.57;;;9.57;;
13309;SDS011;6723;48.256;16.402;2022-07-23T02:58:21;10.77;;;9.77;;
13309;SDS011;6723;48.256;16.402;2022-07-23T03:00:47;10.97;;;9.97;;
13309;SDS011;6723;48.256;16.402;2022-07-23T03:03:12;12.33;;;10.03;;
13309;SDS011;6723;48.256;16.402;2022-07-23T03:05:38;11.67;;;10.57;;
13309;SDS011;6723;48.256;16.402;2022-07-23T03:08:04;11.13;;;10.03;;
13309;SDS011;6723;48.256;16.402;2022-07-23T03:10:30;11.63;;;10.30;;
13309;SDS011;6723;48.256;16.402;2022-07-23T03:12:56;10.90;;;10.00;;
13309;SDS011;6723;48.256;16.402;2022-07-23T03:15:21;11.97;;;10.70;;
13309;SDS011;6723;48.256;16.402;2022-07-23T03:17:47;12.07;;;10.83;;
13309;SDS011;6723;48.256;16.402;2022-07-23T03:20:13;11.80;;;10.63;;
13309;SDS011;6723;48.256;16.402;2022-07-23T03:22:38;10.97;;;9.97;;
13309;SDS011;6723;48.256;16.402;2022-07-23T03:25:04;11.13;;;10.03;;
13309;SDS011;6723;48.256;16.402;2022-07-23T03:27:31;11.13;;;10.03;;
13309;SDS011;6723;48.256;16.402;2022-07-23T03:29:58;11.43;;;10.23;;
13309;SDS011;6723;48.256;16.402;2022-07-23T03:32:24;11.40;;;10.33;;
13309;SDS011;6723;48.256;16.402;2022-07-23T03:34:51;10.83;;;9.90;;
13309;SDS011;6723;48.256;16.402;2022-07-23T03:37:17;11.60;;;10.50;;
13309;SDS011;6723;48.256;16.402;2022-07-23T03:39:43;14.43;;;11.20;;
13309;SDS011;6723;48.256;16.402;2022-07-23T03:42:09;12.20;;;10.47;;
13309;SDS011;6723;48.256;16.402;2022-07-23T03:44:35;10.90;;;9.87;;
13309;SDS011;6723;48.256;16.402;2022-07-23T03:47:02;10.63;;;9.53;;
13309;SDS011;6723;48.256;16.402;2022-07-23T03:49:29;11.90;;;9.87;;
13309;SDS011;6723;48.256;16.402;2022-07-23T03:51:54;11.70;;;10.37;;
13309;SDS011;6723;48.256;16.402;2022-07-23T03:54:20;11.77;;;10.60;;
13309;SDS011;6723;48.256;16.402;2022-07-23T03:56:46;11.27;;;10.13;;
13309;SDS011;6723;48.256;16.402;2022-07-23T03:59:12;11.27;;;10.17;;
13309;SDS011;6723;48.256;16.402;2022-07-23T04:01:38;11.03;;;9.93;;
13309;SDS011;6723;48.256;16.402;2022-07-23T04:04:04;11.10;;;10.00;;
13309;SDS011;6723;48.256;16.402;2022-07-23T04:06:29;11.90;;;10.40;;
13309;SDS011;6723;48.256;16.402;2022-07-23T04:08:55;10.70;;;9.67;;
13309;SDS011;6723;48.256;16.402;2022-07-23T04:11:21;12.60;;;10.60;;
13309;SDS011;6723;48.256;16.402;2022-07-23T04:13:47;12.00;;;10.80;;
13309;SDS011;6723;48.256;16.402;2022-07-23T04:16:13;13.03;;;11.83;;
13309;SDS011;6723;48.256;16.402;2022-07-23T04:18:38;14.57;;;10.83;;
13309;SDS011;6723;48.256;16.402;2022-07-23T04:21:04;10.80;;;9.83;;
13309;SDS011;6723;48.256;16.402;2022-07-23T04:23:30;14.17;;;10.20;;
13309;SDS011;6723;48.256;16.402;2022-07-23T04:25:56;11.43;;;10.23;;
13309;SDS011;6723;48.256;16.402;2022-07-23T04:28:22;11.07;;;10.03;;
13309;SDS011;6723;48.256;16.402;2022-07-23T04:30:48;11.90;;;10.80;;
13309;SDS011;6723;48.256;16.402;2022-07-23T04:33:13;11.43;;;9.90;;
13309;SDS011;6723;48.256;16.402;2022-07-23T04:35:39;11.63;;;10.33;;
13309;SDS011;6723;48.256;16.402;2022-07-23T04:38:05;11.33;;;10.27;;
13309;SDS011;6723;48.256;16.402;2022-07-23T04:40:31;11.10;;;10.00;;
13309;SDS011;6723;48.256;16.402;2022-07-23T04:42:57;11.00;;;9.87;;
13309;SDS011;6723;48.256;16.402;2022-07-23T04:45:23;11.50;;;10.40;;
13309;SDS011;6723;48.256;16.402;2022-07-23T04:47:50;11.40;;;10.20;;
13309;SDS011;6723;48.256;16.402;2022-07-23T04:50:16;13.27;;;10.43;;
13309;SDS011;6723;48.256;16.402;2022-07-23T04:52:46;10.73;;;9.73;;
13309;SDS011;6723;48.256;16.402;2022-07-23T04:55:13;10.60;;;9.70;;
13309;SDS011;6723;48.256;16.402;2022-07-23T04:57:40;11.30;;;10.07;;
13309;SDS011;6723;48.256;16.402;2022-07-23T05:00:06;11.87;;;9.87;;
13309;SDS011;6723;48.256;16.402;2022-07-23T05:02:33;12.20;;;10.10;;
13309;SDS011;6723;48.256;16.402;2022-07-23T05:04:59;10.43;;;9.43;;
13309;SDS011;6723;48.256;16.402;2022-07-23T05:07:24;11.33;;;10.23;;
13309;SDS011;6723;48.256;16.402;2022-07-23T05:09:50;10.70;;;9.70;;
13309;SDS011;6723;48.256;16.402;2022-07-23T05:12:17;10.93;;;9.83;;
13309;SDS011;6723;48.256;16.402;2022-07-23T05:14:43;10.97;;;9.80;;
13309;SDS011;6723;48.256;16.402;2022-07-23T05:17:08;13.57;;;9.93;;
13309;SDS011;6723;48.256;16.402;2022-07-23T05:19:34;10.93;;;9.83;;
13309;SDS011;6723;48.256;16.402;2022-07-23T05:22:01;11.43;;;10.30;;
13309;SDS011;6723;48.256;16.402;2022-07-23T05:24:27;10.63;;;9.53;;
13309;SDS011;6723;48.256;16.402;2022-07-23T05:27:01;11.37;;;9.30;;
13309;SDS011;6723;48.256;16.402;2022-07-23T05:29:27;11.97;;;9.30;;
13309;SDS011;6723;48.256;16.402;2022-07-23T05:31:52;11.40;;;10.17;;
13309;SDS011;6723;48.256;16.402;2022-07-23T05:34:18;11.60;;;10.30;;
13309;SDS011;6723;48.256;16.402;2022-07-23T05:36:44;10.53;;;9.43;;
13309;SDS011;6723;48.256;16.402;2022-07-23T05:39:10;10.90;;;9.90;;
13309;SDS011;6723;48.256;16.402;2022-07-23T05:41:36;12.37;;;9.87;;
13309;SDS011;6723;48.256;16.402;2022-07-23T05:44:01;11.07;;;10.03;;
13309;SDS011;6723;48.256;16.402;2022-07-23T05:46:27;12.73;;;9.93;;
13309;SDS011;6723;48.256;16.402;2022-07-23T05:51:27;10.10;;;9.10;;
13309;SDS011;6723;48.256;16.402;2022-07-23T05:53:52;9.70;;;8.50;;
13309;SDS011;6723;48.256;16.402;2022-07-23T05:56:18;10.57;;;9.47;;
13309;SDS011;6723;48.256;16.402;2022-07-23T05:58:44;9.33;;;8.40;;
13309;SDS011;6723;48.256;16.402;2022-07-23T06:04:03;10.10;;;9.20;;
13309;SDS011;6723;48.256;16.402;2022-07-23T06:06:29;11.30;;;9.13;;
13309;SDS011;6723;48.256;16.402;2022-07-23T06:08:54;10.23;;;9.07;;
13309;SDS011;6723;48.256;16.402;2022-07-23T06:11:22;12.73;;;9.70;;
13309;SDS011;6723;48.256;16.402;2022-07-23T06:13:48;11.47;;;10.37;;
13309;SDS011;6723;48.256;16.402;2022-07-23T06:16:14;10.43;;;9.33;;
13309;SDS011;6723;48.256;16.402;2022-07-23T06:18:39;9.80;;;8.90;;
13309;SDS011;6723;48.256;16.402;2022-07-23T06:21:05;10.03;;;9.03;;
13309;SDS011;6723;48.256;16.402;2022-07-23T06:23:31;11.47;;;9.57;;
13309;SDS011;6723;48.256;16.402;2022-07-23T06:25:56;10.37;;;9.27;;
13309;SDS011;6723;48.256;16.402;2022-07-23T06:44:52;10.60;;;9.37;;
13309;SDS011;6723;48.256;16.402;2022-07-23T06:47:18;10.37;;;9.37;;
13309;SDS011;6723;48.256;16.402;2022-07-23T07:19:36;6.30;;;5.70;;
13309;SDS011;6723;48.256;16.402;2022-07-23T07:22:02;6.25;;;5.32;;
13309;SDS011;6723;48.256;16.402;2022-07-23T07:30:38;4.80;;;4.22;;
13309;SDS011;6723;48.256;16.402;2022-07-23T07:33:04;6.00;;;3.80;;
13309;SDS011;6723;48.256;16.402;2022-07-23T07:35:30;4.22;;;3.83;;
13309;SDS011;6723;48.256;16.402;2022-07-23T08:03:57;3.45;;;3.15;;
13309;SDS011;6723;48.256;16.402;2022-07-23T08:22:11;3.10;;;2.80;;
13309;SDS011;6723;48.256;16.402;2022-07-23T08:24:37;3.03;;;2.83;;
13309;SDS011;6723;48.256;16.402;2022-07-23T08:27:03;3.10;;;2.80;;
13309;SDS011;6723;48.256;16.402;2022-07-23T08:29:29;2.97;;;2.80;;
13309;SDS011;6723;48.256;16.402;2022-07-23T08:31:55;5.10;;;2.72;;
13309;SDS011;6723;48.256;16.402;2022-07-23T08:34:20;3.30;;;2.75;;
13309;SDS011;6723;48.256;16.402;2022-07-23T08:36:46;3.30;;;2.83;;
13309;SDS011;6723;48.256;16.402;2022-07-23T08:39:12;4.55;;;2.60;;
13309;SDS011;6723;48.256;16.402;2022-07-23T08:41:39;3.88;;;2.47;;
13309;SDS011;6723;48.256;16.402;2022-07-23T08:44:07;2.80;;;2.60;;
13309;SDS011;6723;48.256;16.402;2022-07-23T08:46:34;2.60;;;2.40;;
13309;SDS011;6723;48.256;16.402;2022-07-23T08:49:01;2.50;;;2.30;;
13309;SDS011;6723;48.256;16.402;2022-07-23T08:51:28;3.08;;;2.80;;
13309;SDS011;6723;48.256;16.402;2022-07-23T08:53:55;2.72;;;2.53;;
13309;SDS011;6723;48.256;16.402;2022-07-23T08:56:22;2.90;;;2.70;;
13309;SDS011;6723;48.256;16.402;2022-07-23T08:58:47;2.80;;;2.45;;
13309;SDS011;6723;48.256;16.402;2022-07-23T09:01:14;2.90;;;2.70;;
13309;SDS011;6723;48.256;16.402;2022-07-23T09:03:39;2.70;;;2.50;;
13309;SDS011;6723;48.256;16.402;2022-07-23T09:06:05;3.00;;;2.60;;
13309;SDS011;6723;48.256;16.402;2022-07-23T09:11:01;6.55;;;2.50;;
13309;SDS011;6723;48.256;16.402;2022-07-23T09:13:36;3.00;;;2.45;;
13309;SDS011;6723;48.256;16.402;2022-07-23T09:16:14;4.53;;;2.40;;
13309;SDS011;6723;48.256;16.402;2022-07-23T09:18:53;5.15;;;3.17;;
13309;SDS011;6723;48.256;16.402;2022-07-23T09:21:26;3.58;;;2.85;;
13309;SDS011;6723;48.256;16.402;2022-07-23T09:26:32;3.53;;;3.03;;
13309;SDS011;6723;48.256;16.402;2022-07-23T09:29:00;3.30;;;3.00;;
13309;SDS011;6723;48.256;16.402;2022-07-23T09:36:53;3.28;;;3.00;;
13309;SDS011;6723;48.256;16.402;2022-07-23T09:39:33;3.85;;;3.55;;
13309;SDS011;6723;48.256;16.402;2022-07-23T09:44:58;4.88;;;3.65;;
13309;SDS011;6723;48.256;16.402;2022-07-23T09:47:25;4.35;;;3.95;;
13309;SDS011;6723;48.256;16.402;2022-07-23T09:52:34;4.75;;;4.05;;
13309;SDS011;6723;48.256;16.402;2022-07-23T09:55:07;4.05;;;3.70;;
13309;SDS011;6723;48.256;16.402;2022-07-23T09:57:34;4.20;;;3.80;;
13309;SDS011;6723;48.256;16.402;2022-07-23T10:00:03;4.57;;;3.97;;
13309;SDS011;6723;48.256;16.402;2022-07-23T10:02:32;4.50;;;4.10;;
13309;SDS011;6723;48.256;16.402;2022-07-23T10:04:59;4.95;;;3.95;;
13309;SDS011;6723;48.256;16.402;2022-07-23T10:07:26;4.30;;;3.70;;
13309;SDS011;6723;48.256;16.402;2022-07-23T10:09:55;4.93;;;4.40;;
13309;SDS011;6723;48.256;16.402;2022-07-23T10:12:22;4.60;;;4.15;;
13309;SDS011;6723;48.256;16.402;2022-07-23T10:14:49;5.00;;;4.60;;
13309;SDS011;6723;48.256;16.402;2022-07-23T10:17:16;4.85;;;4.38;;
13309;SDS011;6723;48.256;16.402;2022-07-23T10:19:43;4.68;;;4.28;;
13309;SDS011;6723;48.256;16.402;2022-07-23T10:22:10;4.45;;;4.10;;
13309;SDS011;6723;48.256;16.402;2022-07-23T10:24:56;4.28;;;3.97;;
13309;SDS011;6723;48.256;16.402;2022-07-23T10:31:02;6.03;;;3.95;;
13309;SDS011;6723;48.256;16.402;2022-07-23T10:39:20;5.15;;;4.68;;
13309;SDS011;6723;48.256;16.402;2022-07-23T10:41:49;5.47;;;4.65;;
13309;SDS011;6723;48.256;16.402;2022-07-23T10:44:19;4.97;;;4.35;;
13309;SDS011;6723;48.256;16.402;2022-07-23T10:46:57;4.60;;;4.28;;
13309;SDS011;6723;48.256;16.402;2022-07-23T10:49:40;5.95;;;4.93;;
13309;SDS011;6723;48.256;16.402;2022-07-23T10:57:48;5.57;;;4.95;;
13309;SDS011;6723;48.256;16.402;2022-07-23T11:00:16;5.85;;;4.95;;
13309;SDS011;6723;48.256;16.402;2022-07-23T11:02:46;5.38;;;4.97;;
13309;SDS011;6723;48.256;16.402;2022-07-23T11:05:14;5.70;;;5.20;;
13309;SDS011;6723;48.256;16.402;2022-07-23T11:37:12;6.25;;;5.75;;
13309;SDS011;6723;48.256;16.402;2022-07-23T11:39:53;6.05;;;5.60;;
13309;SDS011;6723;48.256;16.402;2022-07-23T11:48:05;6.18;;;5.57;;
13309;SDS011;6723;48.256;16.402;2022-07-23T11:50:33;5.95;;;5.45;;
13309;SDS011;6723;48.256;16.402;2022-07-23T11:53:00;6.03;;;5.53;;
13309;SDS011;6723;48.256;16.402;2022-07-23T11:55:25;6.18;;;5.70;;
13309;SDS011;6723;48.256;16.402;2022-07-23T11:57:53;5.68;;;5.28;;
13309;SDS011;6723;48.256;16.402;2022-07-23T12:00:21;6.38;;;5.70;;
13309;SDS011;6723;48.256;16.402;2022-07-23T12:02:49;6.38;;;5.97;;
13309;SDS011;6723;48.256;16.402;2022-07-23T12:05:20;9.43;;;7.85;;
13309;SDS011;6723;48.256;16.402;2022-07-23T12:07:48;6.50;;;6.00;;
13309;SDS011;6723;48.256;16.402;2022-07-23T12:10:35;6.05;;;5.65;;
13309;SDS011;6723;48.256;16.402;2022-07-23T12:13:12;6.53;;;5.93;;
13309;SDS011;6723;48.256;16.402;2022-07-23T12:15:47;7.28;;;6.03;;
13309;SDS011;6723;48.256;16.402;2022-07-23T12:18:19;6.25;;;5.65;;
13309;SDS011;6723;48.256;16.402;2022-07-23T12:23:28;6.97;;;6.20;;
13309;SDS011;6723;48.256;16.402;2022-07-23T12:25:54;8.02;;;6.00;;
13309;SDS011;6723;48.256;16.402;2022-07-23T12:28:32;6.53;;;6.03;;
13309;SDS011;6723;48.256;16.402;2022-07-23T12:30:58;7.10;;;6.45;;
13309;SDS011;6723;48.256;16.402;2022-07-23T12:33:28;7.55;;;6.85;;
13309;SDS011;6723;48.256;16.402;2022-07-23T12:36:06;6.50;;;6.00;;
13309;SDS011;6723;48.256;16.402;2022-07-23T12:38:38;8.40;;;6.10;;
13309;SDS011;6723;48.256;16.402;2022-07-23T12:41:14;6.50;;;5.93;;
13309;SDS011;6723;48.256;16.402;2022-07-23T12:43:42;7.63;;;6.20;;
13309;SDS011;6723;48.256;16.402;2022-07-23T12:51:16;7.45;;;6.05;;
13309;SDS011;6723;48.256;16.402;2022-07-23T13:00:09;8.15;;;7.25;;
13309;SDS011;6723;48.256;16.402;2022-07-23T13:02:45;6.82;;;6.10;;
13309;SDS011;6723;48.256;16.402;2022-07-23T13:05:11;7.28;;;5.55;;
13309;SDS011;6723;48.256;16.402;2022-07-23T13:10:27;8.27;;;5.70;;
13309;SDS011;6723;48.256;16.402;2022-07-23T13:12:53;7.23;;;5.30;;
13309;SDS011;6723;48.256;16.402;2022-07-23T13:15:19;6.10;;;5.50;;
13309;SDS011;6723;48.256;16.402;2022-07-23T13:17:45;5.67;;;4.90;;
13309;SDS011;6723;48.256;16.402;2022-07-23T13:20:13;7.67;;;4.90;;
13309;SDS011;6723;48.256;16.402;2022-07-23T13:22:38;7.90;;;4.40;;
13309;SDS011;6723;48.256;16.402;2022-07-23T13:25:04;5.30;;;4.43;;
13309;SDS011;6723;48.256;16.402;2022-07-23T13:27:31;4.45;;;4.05;;
13309;SDS011;6723;48.256;16.402;2022-07-23T13:29:57;4.50;;;4.20;;
13309;SDS011;6723;48.256;16.402;2022-07-23T13:32:22;5.40;;;3.70;;
13309;SDS011;6723;48.256;16.402;2022-07-23T13:34:48;4.10;;;3.47;;
13309;SDS011;6723;48.256;16.402;2022-07-23T13:37:14;3.70;;;3.38;;
13309;SDS011;6723;48.256;16.402;2022-07-23T13:39:40;3.92;;;3.20;;
13309;SDS011;6723;48.256;16.402;2022-07-23T13:42:05;4.53;;;3.40;;
13309;SDS011;6723;48.256;16.402;2022-07-23T13:44:31;3.28;;;3.00;;
13309;SDS011;6723;48.256;16.402;2022-07-23T13:46:57;4.25;;;3.35;;
13309;SDS011;6723;48.256;16.402;2022-07-23T13:49:22;3.35;;;3.10;;
13309;SDS011;6723;48.256;16.402;2022-07-23T13:51:48;7.82;;;4.43;;
13309;SDS011;6723;48.256;16.402;2022-07-23T13:54:14;4.35;;;3.40;;
13309;SDS011;6723;48.256;16.402;2022-07-23T13:56:41;3.53;;;3.03;;
13309;SDS011;6723;48.256;16.402;2022-07-23T13:59:06;3.58;;;3.25;;
13309;SDS011;6723;48.256;16.402;2022-07-23T14:01:32;3.85;;;3.55;;
13309;SDS011;6723;48.256;16.402;2022-07-23T14:03:59;3.10;;;2.90;;
13309;SDS011;6723;48.256;16.402;2022-07-23T14:06:24;3.38;;;3.00;;
13309;SDS011;6723;48.256;16.402;2022-07-23T14:08:50;4.32;;;2.58;;
13309;SDS011;6723;48.256;16.402;2022-07-23T14:11:16;3.05;;;2.75;;
13309;SDS011;6723;48.256;16.402;2022-07-23T14:13:42;2.65;;;2.47;;
13309;SDS011;6723;48.256;16.402;2022-07-23T14:16:07;2.70;;;2.50;;
13309;SDS011;6723;48.256;16.402;2022-07-23T14:18:43;5.10;;;4.70;;
13309;SDS011;6723;48.256;16.402;2022-07-23T14:21:09;3.08;;;2.78;;
13309;SDS011;6723;48.256;16.402;2022-07-23T14:23:35;3.83;;;2.83;;
13309;SDS011;6723;48.256;16.402;2022-07-23T14:26:01;2.90;;;2.70;;
13309;SDS011;6723;48.256;16.402;2022-07-23T14:28:28;2.92;;;2.63;;
13309;SDS011;6723;48.256;16.402;2022-07-23T14:30:54;2.70;;;2.50;;
13309;SDS011;6723;48.256;16.402;2022-07-23T14:36:07;3.10;;;2.80;;
13309;SDS011;6723;48.256;16.402;2022-07-23T14:38:33;2.95;;;2.75;;
13309;SDS011;6723;48.256;16.402;2022-07-23T14:40:59;3.25;;;2.95;;
13309;SDS011;6723;48.256;16.402;2022-07-23T14:43:25;3.72;;;2.60;;
13309;SDS011;6723;48.256;16.402;2022-07-23T14:45:50;3.38;;;3.03;;
13309;SDS011;6723;48.256;16.402;2022-07-23T14:48:16;3.22;;;2.90;;
13309;SDS011;6723;48.256;16.402;2022-07-23T14:50:42;3.63;;;2.88;;
13309;SDS011;6723;48.256;16.402;2022-07-23T14:53:07;3.47;;;3.17;;
13309;SDS011;6723;48.256;16.402;2022-07-23T14:55:33;5.28;;;4.47;;
13309;SDS011;6723;48.256;16.402;2022-07-23T14:57:59;3.75;;;3.45;;
13309;SDS011;6723;48.256;16.402;2022-07-23T15:00:26;3.45;;;3.15;;
13309;SDS011;6723;48.256;16.402;2022-07-23T15:02:52;5.68;;;3.17;;
13309;SDS011;6723;48.256;16.402;2022-07-23T15:05:18;5.25;;;3.42;;
13309;SDS011;6723;48.256;16.402;2022-07-23T15:07:44;5.13;;;3.67;;
13309;SDS011;6723;48.256;16.402;2022-07-23T15:10:10;4.28;;;3.47;;
13309;SDS011;6723;48.256;16.402;2022-07-23T15:12:36;6.20;;;3.58;;
13309;SDS011;6723;48.256;16.402;2022-07-23T15:15:02;4.18;;;3.78;;
13309;SDS011;6723;48.256;16.402;2022-07-23T15:17:29;3.63;;;3.30;;
13309;SDS011;6723;48.256;16.402;2022-07-23T15:19:55;4.07;;;3.70;;
13309;SDS011;6723;48.256;16.402;2022-07-23T15:22:21;4.10;;;3.55;;
13309;SDS011;6723;48.256;16.402;2022-07-23T15:24:47;4.32;;;3.92;;
13309;SDS011;6723;48.256;16.402;2022-07-23T15:27:12;5.85;;;4.07;;
13309;SDS011;6723;48.256;16.402;2022-07-23T15:29:38;5.95;;;4.10;;
13309;SDS011;6723;48.256;16.402;2022-07-23T15:32:04;5.70;;;4.00;;
13309;SDS011;6723;48.256;16.402;2022-07-23T15:34:30;4.85;;;3.90;;
13309;SDS011;6723;48.256;16.402;2022-07-23T15:36:56;6.43;;;4.20;;
13309;SDS011;6723;48.256;16.402;2022-07-23T15:39:26;3.90;;;3.60;;
13309;SDS011;6723;48.256;16.402;2022-07-23T15:41:52;4.97;;;4.47;;
13309;SDS011;6723;48.256;16.402;2022-07-23T15:44:18;6.15;;;3.72;;
13309;SDS011;6723;48.256;16.402;2022-07-23T15:46:44;5.25;;;3.90;;
13309;SDS011;6723;48.256;16.402;2022-07-23T15:49:10;6.28;;;4.35;;
13309;SDS011;6723;48.256;16.402;2022-07-23T15:51:38;4.75;;;4.30;;
13309;SDS011;6723;48.256;16.402;2022-07-23T15:54:04;5.28;;;4.63;;
13309;SDS011;6723;48.256;16.402;2022-07-23T15:56:30;7.32;;;4.38;;
13309;SDS011;6723;48.256;16.402;2022-07-23T15:58:55;4.80;;;4.40;;
13309;SDS011;6723;48.256;16.402;2022-07-23T16:01:21;4.97;;;4.40;;
13309;SDS011;6723;48.256;16.402;2022-07-23T16:03:48;6.47;;;4.82;;
13309;SDS011;6723;48.256;16.402;2022-07-23T16:06:14;5.65;;;4.72;;
13309;SDS011;6723;48.256;16.402;2022-07-23T16:08:40;5.70;;;5.03;;
13309;SDS011;6723;48.256;16.402;2022-07-23T16:11:05;7.72;;;6.90;;
13309;SDS011;6723;48.256;16.402;2022-07-23T16:13:31;5.05;;;4.55;;
13309;SDS011;6723;48.256;16.402;2022-07-23T16:15:57;6.57;;;4.80;;
13309;SDS011;6723;48.256;16.402;2022-07-23T16:18:24;6.35;;;3.97;;
13309;SDS011;6723;48.256;16.402;2022-07-23T16:20:51;5.32;;;4.75;;
13309;SDS011;6723;48.256;16.402;2022-07-23T16:23:18;4.75;;;4.35;;
13309;SDS011;6723;48.256;16.402;2022-07-23T16:25:44;7.32;;;4.35;;
13309;SDS011;6723;48.256;16.402;2022-07-23T16:28:10;6.22;;;5.00;;
13309;SDS011;6723;48.256;16.402;2022-07-23T16:30:37;4.93;;;4.53;;
13309;SDS011;6723;48.256;16.402;2022-07-23T16:33:04;5.10;;;4.70;;
13309;SDS011;6723;48.256;16.402;2022-07-23T16:35:30;5.70;;;4.65;;
13309;SDS011;6723;48.256;16.402;2022-07-23T16:37:56;5.70;;;4.40;;
13309;SDS011;6723;48.256;16.402;2022-07-23T16:40:26;5.38;;;4.50;;
13309;SDS011;6723;48.256;16.402;2022-07-23T16:42:52;4.68;;;4.32;;
13309;SDS011;6723;48.256;16.402;2022-07-23T16:45:18;5.55;;;4.80;;
13309;SDS011;6723;48.256;16.402;2022-07-23T16:47:46;5.55;;;4.72;;
13309;SDS011;6723;48.256;16.402;2022-07-23T16:50:12;5.50;;;4.45;;
13309;SDS011;6723;48.256;16.402;2022-07-23T16:52:39;5.28;;;4.20;;
13309;SDS011;6723;48.256;16.402;2022-07-23T16:55:05;4.70;;;4.30;;
13309;SDS011;6723;48.256;16.402;2022-07-23T16:57:31;5.00;;;4.50;;
13309;SDS011;6723;48.256;16.402;2022-07-23T16:59:57;4.40;;;3.95;;
13309;SDS011;6723;48.256;16.402;2022-07-23T17:02:23;4.22;;;3.92;;
13309;SDS011;6723;48.256;16.402;2022-07-23T17:04:49;5.53;;;4.00;;
13309;SDS011;6723;48.256;16.402;2022-07-23T17:07:15;5.53;;;4.10;;
13309;SDS011;6723;48.256;16.402;2022-07-23T17:09:41;6.63;;;4.28;;
13309;SDS011;6723;48.256;16.402;2022-07-23T17:12:08;4.47;;;4.00;;
13309;SDS011;6723;48.256;16.402;2022-07-23T17:14:33;5.00;;;4.10;;
13309;SDS011;6723;48.256;16.402;2022-07-23T17:16:59;5.20;;;4.20;;
13309;SDS011;6723;48.256;16.402;2022-07-23T17:19:26;4.43;;;4.03;;
13309;SDS011;6723;48.256;16.402;2022-07-23T17:21:52;4.47;;;4.13;;
13309;SDS011;6723;48.256;16.402;2022-07-23T17:24:18;4.17;;;3.83;;
13309;SDS011;6723;48.256;16.402;2022-07-23T17:26:44;5.57;;;4.33;;
13309;SDS011;6723;48.256;16.402;2022-07-23T17:29:10;6.47;;;4.77;;
13309;SDS011;6723;48.256;16.402;2022-07-23T17:31:37;5.17;;;4.50;;
13309;SDS011;6723;48.256;16.402;2022-07-23T17:34:03;4.60;;;4.20;;
13309;SDS011;6723;48.256;16.402;2022-07-23T17:36:28;5.70;;;4.90;;
13309;SDS011;6723;48.256;16.402;2022-07-23T17:38:54;6.30;;;4.47;;
13309;SDS011;6723;48.256;16.402;2022-07-23T17:41:20;5.40;;;4.60;;
13309;SDS011;6723;48.256;16.402;2022-07-23T17:43:46;4.93;;;4.40;;